Aérodrome :
LOGIN :

S'inscrire | Disclaimer

   EN    FR    IT 

 










Légende :    VFR   VFR Marginal   IFR   IFR Intensif   IFR Très Intensif
Visi : 
Plafond : 
>= 8 km
>= 3000ft
5 à 8 km
1000 à 3000 ft
1500m à 5 km
500 à 1000 ft
800 à 1500m
200 à 500 ft
< 800m
< 200 ft
Symboles :   Orages  Brouillard  Fortes neiges  Fortes précipitations  Vent > 20 kt
SIGMETs :   Divers  Orages  Givrage  Turbulence  Onde Orograph.  Cendres Volcan.






- Altitude de l'aérodrome : 768 ft
- Code IATA : MXP


LIMC - Milano Malpensa

DERNIER METAR :
  • 170420Z 01005KT 9999 SCT065 16/14 Q1015 NOSIG

METARs EXPIRÉS :
  • 170350Z VRB01KT 9999 SCT060 15/13 Q1015 NOSIG
  • 170320Z VRB02KT 9999 SCT060 15/13 Q1015 NOSIG
  • 170250Z 02004KT 9999 FEW060 14/12 Q1014 NOSIG
  • 170220Z 06002KT 9999 FEW060 14/12 Q1014 NOSIG
  • 170150Z VRB01KT CAVOK 14/13 Q1014 NOSIG
  • 170120Z 03003KT CAVOK 15/13 Q1014 NOSIG
  • 170050Z 09003KT 010V150 CAVOK 15/13 Q1014 NOSIG
  • 170020Z 14003KT 120V180 CAVOK 16/13 Q1014 NOSIG
  • 162350Z VRB01KT CAVOK 16/13 Q1014 NOSIG

TAF TAF LIMC
Valide du 17 à 00h jusqu'au 18 à 06h UTC


162300Z 1700/1806 VRB05KT 9999 FEW050



MET'MAP, la Météo Aéronautique d'un coup d'oeil ! - Copyright ORBIFLY Décembre 2007 - Disclaimer

ORBIFLY MET'MAP TEAM :

Programmation & Développement : Alexandra Zaïnal
Sur une idée originale de : Baudouin d'Aumeries
Soutien technique & logistique : Manuel Goepfert
Assistance : Marc-Olivier Méhu




SOURCES & CREDITS :

   NOAA